Time;durP1;ratioP1;P1;durP2;ratioP2;P2;SDS_P1;SDS_P2;PMS_P1;PMS_P2;Temp;Humidity;BMP_temperature;BMP_pressure;BME280_temperature;BME280_humidity;BME280_pressure;Samples;Min_cycle;Max_cycle;Signal;HPM_P1;HPM_P2
2021/11/12 00:14:44;;;;;;;;;;;;;;;;;;10504508;28;19935;-72
2021/11/12 00:19:46;;;;;;;;;;;;;;;;;;10512110;28;19978;-72
2021/11/12 00:24:49;;;;;;;;;;;;;;;;;;10511233;28;19990;-74
2021/11/12 00:29:58;;;;;;;;;;;;;;;;;;10507119;28;20296;-74
2021/11/12 00:35:11;;;;;;;;;;;;;;;;;;10510079;28;20055;-72
2021/11/12 00:40:16;;;;;;;;;;;;;;;;;;10495297;28;20383;-73
2021/11/12 00:45:22;;;;;;;;;;;;;;;;;;10515777;28;19971;-73
2021/11/12 00:50:35;;;;;;;;;;;;;;;;;;10514290;28;19924;-72
2021/11/12 00:55:39;;;;;;;;;;;;;;;;;;10523286;28;20391;-73
2021/11/12 01:00:42;;;;;;;;;;;;;;;;;;10516930;28;19950;-73
2021/11/12 01:05:44;;;;;;;;;;;;;;;;;;10514702;28;20391;-71
2021/11/12 01:10:47;;;;;;;;;;;;;;;;;;10517838;28;20486;-71
2021/11/12 01:15:50;;;;;;;;;;;;;;;;;;10515501;28;19925;-71
2021/11/12 01:20:52;;;;;;;;;;;;;;;;;;10516328;28;19932;-71
2021/11/12 01:25:55;;;;;;;;;;;;;;;;;;10510883;28;19933;-72
2021/11/12 01:30:57;;;;;;;;;;;;;;;;;;10513574;28;19963;-72
2021/11/12 01:36:07;;;;;;;;;;;;;;;;;;10491729;28;19928;-71
2021/11/12 01:41:10;;;;;;;;;;;;;;;;;;10507545;28;20377;-72
2021/11/12 01:51:37;;;;;;;;;;;;;;;;;;10515697;28;20325;-70
2021/11/12 01:56:42;;;;;;;;;;;;;;;;;;10495960;28;20364;-70
2021/11/12 02:01:45;;;;;;;;;;;;;;;;;;10509802;28;19924;-72
2021/11/12 02:06:48;;;;;;;;;;;;;;;;;;10517351;28;19928;-72
2021/11/12 02:11:59;;;;;;;;;;;;;;;;;;10513006;28;19928;-74
2021/11/12 02:17:07;;;;;;;;;;;;;;;;;;10494553;28;20527;-72
2021/11/12 02:22:31;;;;;;;;;;;;;;;;;;10507805;28;19932;-72
2021/11/12 02:27:56;;;;;;;;;;;;;;;;;;10508915;28;19924;-72
2021/11/12 02:33:19;;;;;;;;;;;;;;;;;;10508642;28;19943;-71
2021/11/12 02:38:21;;;;;;;;;;;;;;;;;;10506687;28;19999;-68
2021/11/12 02:43:24;;;;;;;;;;;;;;;;;;10511625;28;19925;-73
2021/11/12 02:48:27;;;;;;;;;;;;;;;;;;10512491;28;20035;-69
2021/11/12 02:53:29;;;;;;;;;;;;;;;;;;10507199;28;19978;-71
2021/11/12 02:58:33;;;;;;;;;;;;;;;;;;10491474;28;19950;-70
2021/11/12 03:03:36;;;;;;;;;;;;;;;;;;10505599;28;20273;-73
2021/11/12 03:08:39;;;;;;;;;;;;;;;;;;10509350;28;19992;-74
2021/11/12 03:13:44;;;;;;;;;;;;;;;;;;10512948;28;19934;-73
2021/11/12 03:18:47;;;;;;;;;;;;;;;;;;10516453;28;19955;-70
2021/11/12 03:23:53;;;;;;;;;;;;;;;;;;10517765;28;19939;-70
2021/11/12 03:29:27;;;;;;;;;;;;;;;;;;10512407;28;20303;-70
2021/11/12 04:06:37;;;;;;;;;;;;;;;;;;10490867;28;20015;-71
2021/11/12 05:02:45;;;;;;;;;;;;;;;;;;10515822;28;20408;-72
2021/11/12 05:43:52;;;;;;;;;;;;;;;;;;10513648;28;19947;-72
2021/11/12 05:59:35;;;;;;;;;;;;;;;;;;10514653;28;20031;-72
2021/11/12 06:04:38;;;;;;;;;;;;;;;;;;10510957;28;20278;-72
2021/11/12 06:09:40;;;;;;;;;;;;;;;;;;10514545;28;19932;-72
2021/11/12 06:14:44;;;;;;;;;;;;;;;;;;10513583;28;20026;-70
2021/11/12 06:19:46;;;;;;;;;;;;;;;;;;10513767;28;20302;-72
2021/11/12 06:24:49;;;;;;;;;;;;;;;;;;10508009;28;19982;-74
2021/11/12 06:29:53;;;;;;;;;;;;;;;;;;10516731;28;20273;-72
2021/11/12 06:34:55;;;;;;;;;;;;;;;;;;10511104;28;19935;-71
2021/11/12 06:39:58;;;;;;;;;;;;;;;;;;10485224;28;19974;-72
2021/11/12 06:50:26;;;;;;;;;;;;;;;;;;10513471;28;19924;-71
2021/11/12 06:55:28;;;;;;;;;;;;;;;;;;10509850;28;20023;-73
2021/11/12 07:00:31;;;;;;;;;;;;;;;;;;10513802;28;19947;-73
2021/11/12 07:05:34;;;;;;;;;;;;;;;;;;10514106;28;20045;-71
2021/11/12 07:10:36;;;;;;;;;;;;;;;;;;10513723;28;19928;-71
2021/11/12 07:15:39;;;;;;;;;;;;;;;;;;10508355;28;20285;-70
2021/11/12 07:20:41;;;;;;;;;;;;;;;;;;10509255;28;19932;-72
2021/11/12 07:25:45;;;;;;;;;;;;;;;;;;10491198;28;19924;-72
2021/11/12 07:30:48;;;;;;;;;;;;;;;;;;10511975;28;19963;-72
2021/11/12 07:35:53;;;;;;;;;;;;;;;;;;10490019;28;20037;-72
2021/11/12 07:46:18;;;;;;;;;;;;;;;;;;10493931;28;20311;-70
2021/11/12 07:51:21;;;;;;;;;;;;;;;;;;10511878;28;20407;-73
2021/11/12 07:56:24;;;;;;;;;;;;;;;;;;10512340;28;19931;-71
2021/11/12 08:01:26;;;;;;;;;;;;;;;;;;10503870;28;20304;-72
2021/11/12 08:06:30;;;;;;;;;;;;;;;;;;10489278;28;19932;-71
2021/11/12 08:11:35;;;;;;;;;;;;;;;;;;10510364;28;19924;-68
2021/11/12 08:16:56;;;;;;;;;;;;;;;;;;10512310;28;20003;-71
2021/11/12 08:22:03;;;;;;;;;;;;;;;;;;10494988;28;19928;-72
2021/11/12 08:27:27;;;;;;;9.27;5.00;;;;;;;;;;10510835;28;19986;-70
2021/11/12 08:32:43;;;;;;;12.07;5.17;;;;;;;;;;10503954;28;20068;-71
2021/11/12 08:38:02;;;;;;;15.57;8.70;;;;;;;;;;10501014;28;20429;-71
2021/11/12 08:43:11;;;;;;;15.50;7.63;;;;;;;;;;10489975;28;20463;-69
2021/11/12 08:48:17;;;;;;;15.30;8.20;;;;;;;;;;10483991;28;20573;-72
2021/11/12 08:53:20;;;;;;;15.35;8.20;;;;;;;;;;10502455;28;20934;-71
2021/11/12 08:58:24;;;;;;;13.30;7.53;;;;;;;;;;10503617;28;20483;-72
2021/11/12 09:03:27;;;;;;;14.75;7.93;;;;;;;;;;10501874;28;20463;-72
2021/11/12 09:08:30;;;;;;;15.80;8.00;;;;;;;;;;10511633;28;20996;-70
2021/11/12 09:13:40;;;;;;;13.75;8.20;;;;;;;;;;10511851;28;20847;-71
2021/11/12 09:18:44;;;;;;;13.55;7.90;;;;;;;;;;10509064;28;20883;-72
2021/11/12 09:23:47;;;;;;;15.17;8.03;;;;;;;;;;10508203;28;20844;-71
2021/11/12 09:28:49;;;;;;;;;;;;;;;;;;10525733;28;20318;-73
2021/11/12 09:33:52;;;;;;;;;;;;;;;;;;10512647;28;20011;-71
2021/11/12 09:38:54;;;;;;;;;;;;;;;;;;10508202;28;19999;-69
2021/11/12 09:43:57;;;;;;;;;;;;;;;;;;10511154;28;19923;-71
2021/11/12 09:49:02;;;;;;;;;;;;;;;;;;10494398;28;20019;-71
2021/11/12 09:54:07;;;;;;;11.73;4.88;;;;;;;;;;10515795;28;20550;-71
2021/11/12 09:59:10;;;;;;;;;;;;;;;;;;10494783;28;20104;-70
2021/11/12 10:04:13;;;;;;;6.78;3.30;;;;;;;;;;10489175;28;19978;-72
2021/11/12 10:09:19;;;;;;;13.25;5.40;;;;;;;;;;10511489;28;20118;-71
2021/11/12 10:14:25;;;;;;;;;;;;;;;;;;10505670;28;20052;-71
2021/11/12 10:19:27;;;;;;;;;;;;;;;;;;10507588;28;20326;-70
2021/11/12 10:24:31;;;;;;;;;;;;;;;;;;10512082;28;19920;-71
2021/11/12 10:29:33;;;;;;;;;;;;;;;;;;10510787;28;19920;-72
2021/11/12 10:34:36;;;;;;;;;;;;;;;;;;10508864;28;19957;-71
2021/11/12 10:39:41;;;;;;;12.07;4.95;;;;;;;;;;10517980;28;20035;-71
2021/11/12 10:44:45;;;;;;;9.98;4.80;;;;;;;;;;10518450;28;20050;-72
2021/11/12 10:49:49;;;;;;;10.45;5.18;;;;;;;;;;10506927;28;20040;-72
2021/11/12 10:54:55;;;;;;;13.53;6.20;;;;;;;;;;10513197;28;20072;-72
2021/11/12 11:00:00;;;;;;;14.27;8.37;;;;;;;;;;10515569;28;20495;-73
2021/11/12 11:05:04;;;;;;;15.60;8.70;;;;;;;;;;10504580;28;20489;-72
2021/11/12 11:10:09;;;;;;;;;;;;;;;;;;10504915;28;20439;-73
2021/11/12 11:15:12;;;;;;;;;;;;;;;;;;10508783;28;19931;-71
2021/11/12 11:20:19;;;;;;;15.33;5.93;;;;;;;;;;10507448;28;20453;-72
2021/11/12 11:25:24;;;;;;;9.65;4.88;;;;;;;;;;10511054;28;20552;-73
2021/11/12 11:30:27;;;;;;;;;;;;;;;;;;10508437;28;20120;-71
2021/11/12 11:35:29;;;;;;;;;;;;;;;;;;10512011;28;19935;-69
2021/11/12 11:40:32;;;;;;;;;;;;;;;;;;10489851;28;19924;-72
2021/11/12 11:45:40;;;;;;;;;;;;;;;;;;10505971;28;20018;-73
2021/11/12 11:50:42;;;;;;;;;;;;;;;;;;10492959;28;20368;-70
2021/11/12 11:55:45;;;;;;;;;;;;;;;;;;10495481;28;19996;-72
2021/11/12 12:00:48;;;;;;;;;;;;;;;;;;10500014;28;20437;-74
2021/11/12 12:05:50;;;;;;;;;;;;;;;;;;10488239;28;19926;-73
2021/11/12 12:10:54;;;;;;;;;;;;;;;;;;10503051;28;19931;-75
2021/11/12 12:15:56;;;;;;;;;;;;;;;;;;10488185;28;20403;-71
2021/11/12 12:21:09;;;;;;;;;;;;;;;;;;10503910;28;20010;-71
2021/11/12 12:32:27;;;;;;;;;;;;;;;;;;10518156;28;19970;-72
2021/11/12 13:25:15;;;;;;;;;;;;;;;;;;10474642;28;20000;-73
2021/11/12 13:30:18;;;;;;;;;;;;;;;;;;10514719;28;20024;-72
2021/11/12 13:35:20;;;;;;;;;;;;;;;;;;10511450;28;19924;-70
2021/11/12 13:40:23;;;;;;;;;;;;;;;;;;10509481;28;19924;-72
2021/11/12 13:45:25;;;;;;;;;;;;;;;;;;10508289;28;19977;-72
2021/11/12 13:50:28;;;;;;;;;;;;;;;;;;10511691;28;20874;-71
2021/11/12 13:55:31;;;;;;;;;;;;;;;;;;10496231;28;20485;-71
2021/11/12 14:00:33;;;;;;;;;;;;;;;;;;10511909;28;19919;-72
2021/11/12 14:05:36;;;;;;;;;;;;;;;;;;10494950;28;20352;-72
2021/11/12 14:10:39;;;;;;;;;;;;;;;;;;10514140;28;19927;-72
2021/11/12 14:15:43;;;;;;;;;;;;;;;;;;10509752;28;19931;-73
2021/11/12 14:20:47;;;;;;;;;;;;;;;;;;10514197;28;19920;-72
2021/11/12 14:26:07;;;;;;;;;;;;;;;;;;10496255;28;19928;-71
2021/11/12 14:31:19;;;;;;;;;;;;;;;;;;10508421;28;19964;-71
2021/11/12 14:36:33;;;;;;;;;;;;;;;;;;10511510;28;19928;-72
2021/11/12 14:41:52;;;;;;;;;;;;;;;;;;10514591;28;19951;-72
2021/11/12 14:47:04;;;;;;;;;;;;;;;;;;10510531;28;19978;-72
2021/11/12 14:52:08;;;;;;;;;;;;;;;;;;10507818;28;20423;-72
2021/11/12 14:57:19;;;;;;;;;;;;;;;;;;10514101;28;19962;-73
2021/11/12 15:02:22;;;;;;;;;;;;;;;;;;10509182;28;20395;-70
2021/11/12 15:07:28;;;;;;;;;;;;;;;;;;10505852;28;19924;-72
2021/11/12 15:12:30;;;;;;;;;;;;;;;;;;10512048;28;20368;-71
2021/11/12 15:17:33;;;;;;;;;;;;;;;;;;10506618;28;20483;-71
2021/11/12 15:22:46;;;;;;;;;;;;;;;;;;10505622;28;19920;-72
2021/11/12 15:27:58;;;;;;;;;;;;;;;;;;10492084;28;19993;-72
2021/11/12 15:33:03;;;;;;;;;;;;;;;;;;10502788;28;19938;-71
2021/11/12 15:38:12;;;;;;;;;;;;;;;;;;10483482;28;20372;-72
2021/11/12 15:43:24;;;;;;;;;;;;;;;;;;10509700;28;20307;-72
2021/11/12 15:48:32;;;;;;;;;;;;;;;;;;10508992;28;20427;-72
2021/11/12 15:53:41;;;;;;;;;;;;;;;;;;10498144;28;19941;-71
2021/11/12 15:58:55;;;;;;;;;;;;;;;;;;10507860;28;19920;-72
2021/11/12 16:09:30;;;;;;;;;;;;;;;;;;10510860;28;20012;-72
2021/11/12 16:14:36;;;;;;;;;;;;;;;;;;10514558;28;19924;-72
2021/11/12 16:19:43;;;;;;;;;;;;;;;;;;10511388;28;20004;-72
2021/11/12 16:25:02;;;;;;;;;;;;;;;;;;10517975;28;20362;-71
2021/11/12 16:30:06;;;;;;;;;;;;;;;;;;10501714;28;19921;-73
2021/11/12 16:35:09;;;;;;;;;;;;;;;;;;10502384;28;19924;-73
2021/11/12 16:44:54;;;;;;;10.55;3.95;;;;;;;;;;10479114;28;66432;-71
2021/11/12 16:50:14;;;;;;;22.57;9.20;;;;;;;;;;10424825;28;20033;-70
2021/11/12 16:55:28;;;;;;;18.50;6.63;;;;;;;;;;10425629;28;20107;-70
2021/11/12 17:00:58;;;;;;;15.00;7.20;;;;;;;;;;10427312;28;20101;-69
2021/11/12 17:06:08;;;;;;;16.70;5.80;;;;;;;;;;10413720;28;20437;-69
2021/11/12 17:11:22;;;;;;;11.55;4.28;;;;;;;;;;10423975;28;20041;-70
2021/11/12 17:16:41;;;;;;;8.17;3.97;;;;;;;;;;10424099;28;20045;-71
2021/11/12 17:48:35;;;;;;;18.35;6.13;;;;;;;;;;10425620;28;20059;-70
2021/11/12 18:04:26;;;;;;;20.73;8.40;;;;;;;;;;10395664;28;20096;-70
2021/11/12 18:09:49;;;;;;;20.83;8.38;;;;;;;;;;10398384;28;20057;-69
2021/11/12 21:46:22;;;;;;;24.85;9.25;;;;;;;;;;10398009;28;20122;-69
2021/11/12 21:51:28;;;;;;;20.38;8.38;;;;;;;;;;10403369;28;20502;-71
2021/11/12 21:56:33;;;;;;;35.90;11.90;;;;;;;;;;10400397;28;20038;-70
2021/11/12 22:01:36;;;;;;;28.30;9.68;;;;;;;;;;10396611;28;20034;-69
2021/11/12 22:06:40;;;;;;;17.55;6.32;;;;;;;;;;10398667;28;20045;-70
2021/11/12 22:11:43;;;;;;;;;;;;;;;;;;10397534;28;20115;-69
2021/11/12 22:16:46;;;;;;;23.20;8.30;;;;;;;;;;10397791;28;19928;-67
2021/11/12 22:21:52;;;;;;;26.00;9.23;;;;;;;;;;10401607;28;20092;-69
2021/11/12 22:26:55;;;;;;;9.45;3.88;;;;;;;;;;10390930;28;20050;-69
2021/11/12 22:31:58;;;;;;;26.30;9.52;;;;;;;;;;10394339;28;20045;-70
2021/11/12 22:37:18;;;;;;;19.85;7.97;;;;;;;;;;10414442;28;20470;-70
2021/11/12 22:42:25;;;;;;;17.90;6.27;;;;;;;;;;10395268;28;20055;-70
2021/11/12 22:47:28;;;;;;;14.88;5.60;;;;;;;;;;10395259;28;20100;-70
2021/11/12 22:52:32;;;;;;;21.90;7.10;;;;;;;;;;10395513;28;20038;-68
2021/11/12 22:57:36;;;;;;;20.20;7.73;;;;;;;;;;10399595;28;20096;-69
2021/11/12 23:02:38;;;;;;;16.40;6.90;;;;;;;;;;10397741;28;20041;-69
2021/11/12 23:07:43;;;;;;;23.50;8.53;;;;;;;;;;10397527;28;20061;-69
2021/11/12 23:12:46;;;;;;;16.20;6.60;;;;;;;;;;10400996;28;20507;-68
2021/11/12 23:17:49;;;;;;;17.25;7.22;;;;;;;;;;10400562;28;20056;-69
2021/11/12 23:22:54;;;;;;;22.45;8.43;;;;;;;;;;10394733;28;20041;-70
2021/11/12 23:27:56;;;;;;;;;;;;;;;;;;10398373;28;20420;-69
2021/11/12 23:32:59;;;;;;;24.10;8.40;;;;;;;;;;10392758;28;20000;-70
2021/11/12 23:38:03;;;;;;;20.05;8.13;;;;;;;;;;10392361;28;20059;-69
2021/11/12 23:43:06;;;;;;;;;;;;;;;;;;10389331;28;20490;-68
2021/11/12 23:48:08;;;;;;;15.38;6.05;;;;;;;;;;10394707;28;20140;-69
2021/11/12 23:53:13;;;;;;;16.02;6.18;;;;;;;;;;10395076;28;20132;-70
2021/11/12 23:58:16;;;;;;;13.63;5.30;;;;;;;;;;10397684;28;20049;-70
